createdAt,value
2023-03-02T00:02:03.813Z,74.80
2023-03-02T00:05:07.011Z,74.78
2023-03-02T00:08:10.008Z,74.83
2023-03-02T00:11:11.828Z,75.06
2023-03-02T00:14:13.763Z,75.38
2023-03-02T00:17:15.636Z,75.07
2023-03-02T00:20:17.920Z,75.07
2023-03-02T00:23:19.833Z,75.43
2023-03-02T00:26:21.705Z,75.53
2023-03-02T00:29:23.772Z,75.28
2023-03-02T00:32:26.035Z,75.13
2023-03-02T00:35:28.032Z,74.96
2023-03-02T00:38:30.196Z,74.54
2023-03-02T00:41:34.723Z,74.52
2023-03-02T00:44:36.631Z,74.21
2023-03-02T00:47:39.129Z,74.20
2023-03-02T00:50:41.774Z,73.67
2023-03-02T00:53:43.748Z,74.01
2023-03-02T00:56:46.449Z,73.83
2023-03-02T00:59:48.969Z,73.87
2023-03-02T01:03:17.154Z,74.20
2023-03-02T01:06:21.005Z,74.48
2023-03-02T01:09:23.171Z,74.84
2023-03-02T01:12:25.020Z,74.67
2023-03-02T01:15:28.381Z,74.48
2023-03-02T01:18:34.429Z,75.33
2023-03-02T01:21:36.507Z,75.09
2023-03-02T01:24:39.577Z,75.14
2023-03-02T01:27:41.564Z,75.26
2023-03-02T01:30:50.627Z,75.20
2023-03-02T01:33:52.871Z,75.24
2023-03-02T01:36:54.819Z,75.23
2023-03-02T01:39:56.757Z,74.95
2023-03-02T01:43:02.621Z,75.00
2023-03-02T01:46:16.533Z,74.92
2023-03-02T01:49:25.553Z,75.51
2023-03-02T01:52:35.111Z,75.24
2023-03-02T01:55:39.103Z,75.63
2023-03-02T01:58:41.322Z,75.56
2023-03-02T02:01:47.588Z,76.10
2023-03-02T02:04:50.522Z,75.99
2023-03-02T02:07:52.401Z,76.42
2023-03-02T02:10:55.404Z,76.32
2023-03-02T02:13:58.772Z,76.88
2023-03-02T02:17:01.514Z,76.10
2023-03-02T02:20:29.454Z,76.48
2023-03-02T02:23:42.759Z,76.41
2023-03-02T02:26:52.085Z,76.11
2023-03-02T02:29:58.341Z,76.22
2023-03-02T02:33:01.541Z,76.21
2023-03-02T02:36:09.568Z,76.19
2023-03-02T02:39:29.119Z,76.01
2023-03-02T02:42:35.779Z,76.37
2023-03-02T02:45:37.857Z,75.95
2023-03-02T02:48:40.115Z,76.40
2023-03-02T02:51:42.069Z,76.19
2023-03-02T02:54:47.297Z,76.77
2023-03-02T02:57:52.017Z,76.65
2023-03-02T03:00:56.263Z,76.45
2023-03-02T03:04:02.670Z,76.45
2023-03-02T03:07:06.617Z,76.95
2023-03-02T03:10:15.225Z,76.87
2023-03-02T03:13:17.381Z,77.18
2023-03-02T03:16:21.205Z,76.86
2023-03-02T03:19:30.793Z,77.52
2023-03-02T03:22:38.530Z,77.72
2023-03-02T03:25:42.492Z,77.75
2023-03-02T03:28:45.269Z,77.85
2023-03-02T03:31:47.335Z,78.08
2023-03-02T03:34:49.427Z,77.88
2023-03-02T03:38:00.002Z,77.97
2023-03-02T03:41:02.160Z,78.06
2023-03-02T03:44:04.875Z,78.50
2023-03-02T03:47:09.679Z,78.98
2023-03-02T03:50:12.123Z,79.27
2023-03-02T03:53:15.026Z,79.80
2023-03-02T03:56:17.111Z,79.48
2023-03-02T03:59:23.334Z,79.17
2023-03-02T04:02:29.633Z,79.62
2023-03-02T04:05:31.824Z,79.59
2023-03-02T04:08:35.708Z,79.32
2023-03-02T04:11:41.240Z,79.95
2023-03-02T04:14:45.204Z,79.53
2023-03-02T04:17:50.674Z,80.23
2023-03-02T04:20:56.448Z,79.93
2023-03-02T04:23:58.452Z,79.74
2023-03-02T04:27:00.502Z,80.28
2023-03-02T04:30:05.231Z,79.76
2023-03-02T04:33:07.397Z,79.75
2023-03-02T04:36:10.885Z,79.99
2023-03-02T04:39:15.875Z,79.52
2023-03-02T04:42:21.719Z,79.71
2023-03-02T04:45:26.687Z,79.51
2023-03-02T04:48:29.457Z,79.17
2023-03-02T04:51:34.437Z,79.17
2023-03-02T04:54:36.325Z,79.43
2023-03-02T04:57:38.198Z,79.71
2023-03-02T05:00:40.912Z,78.90
2023-03-02T05:03:42.988Z,79.28
2023-03-02T05:06:45.292Z,78.86
2023-03-02T05:09:47.164Z,78.90
2023-03-02T05:12:55.810Z,78.54
2023-03-02T05:16:01.371Z,77.61
2023-03-02T05:19:04.899Z,77.50
2023-03-02T05:22:08.988Z,77.13
2023-03-02T05:25:12.222Z,76.32
2023-03-02T05:28:14.086Z,76.97
2023-03-02T05:31:23.435Z,75.84
2023-03-02T05:34:28.174Z,75.23
2023-03-02T05:37:32.676Z,75.30
2023-03-02T05:40:40.012Z,75.33
2023-03-02T05:43:41.875Z,75.55
2023-03-02T05:46:43.760Z,75.80
2023-03-02T05:49:46.037Z,75.52
2023-03-02T05:52:48.526Z,76.15
2023-03-02T05:55:53.116Z,76.19
2023-03-02T05:58:57.377Z,76.03
2023-03-02T06:01:59.556Z,75.94
2023-03-02T06:05:01.549Z,76.02
2023-03-02T06:08:04.054Z,75.78
2023-03-02T06:11:05.889Z,75.80
2023-03-02T06:14:07.802Z,75.86
2023-03-02T06:17:11.711Z,75.35
2023-03-02T06:20:14.843Z,75.16
2023-03-02T06:23:17.136Z,75.33
2023-03-02T06:26:19.046Z,75.11
2023-03-02T06:29:22.555Z,74.83
2023-03-02T06:32:27.004Z,74.48
2023-03-02T06:35:29.265Z,74.18
2023-03-02T06:38:32.285Z,74.18
2023-03-02T06:41:34.462Z,74.07
2023-03-02T06:44:36.475Z,73.80
2023-03-02T06:47:38.844Z,73.76
2023-03-02T06:50:40.724Z,73.52
2023-03-02T06:53:42.574Z,73.02
2023-03-02T06:56:44.449Z,72.59
2023-03-02T06:59:46.358Z,71.32
2023-03-02T07:02:50.224Z,71.56
2023-03-02T07:05:52.346Z,70.96
2023-03-02T07:08:54.298Z,70.53
2023-03-02T07:11:58.647Z,70.99
2023-03-02T07:15:04.081Z,70.10
2023-03-02T07:18:06.159Z,69.89
2023-03-02T07:21:09.443Z,69.38
2023-03-02T07:24:11.368Z,69.11
2023-03-02T07:27:16.223Z,68.13
2023-03-02T07:30:21.343Z,67.73
2023-03-02T07:33:23.337Z,66.89
2023-03-02T07:36:26.364Z,66.09
2023-03-02T07:39:28.191Z,65.12
2023-03-02T07:42:30.153Z,65.87
2023-03-02T07:45:33.748Z,66.47
2023-03-02T07:48:35.816Z,66.66
2023-03-02T07:51:37.704Z,67.56
2023-03-02T07:54:39.541Z,67.62
2023-03-02T07:57:41.429Z,67.31
2023-03-02T08:01:03.411Z,67.61
2023-03-02T08:04:05.416Z,67.83
2023-03-02T08:07:07.391Z,67.43
2023-03-02T08:10:12.281Z,68.00
2023-03-02T08:13:14.207Z,68.18
2023-03-02T08:16:16.556Z,67.38
2023-03-02T08:19:20.710Z,67.30
2023-03-02T08:22:24.805Z,67.79
2023-03-02T08:25:26.696Z,67.45
2023-03-02T08:28:28.681Z,67.59
2023-03-02T08:31:31.326Z,68.02
2023-03-02T08:34:33.744Z,67.66
2023-03-02T08:37:35.746Z,68.05
2023-03-02T08:40:41.403Z,67.88
2023-03-02T08:43:43.811Z,67.80
2023-03-02T08:46:45.690Z,68.37
2023-03-02T08:49:48.277Z,68.08
2023-03-02T08:52:50.323Z,67.84
2023-03-02T08:55:54.621Z,67.47
2023-03-02T08:58:59.876Z,67.40
2023-03-02T09:02:10.257Z,67.62
2023-03-02T09:05:12.465Z,66.72
2023-03-02T09:08:14.604Z,66.81
2023-03-02T09:11:16.577Z,66.47
2023-03-02T09:14:18.470Z,65.75
2023-03-02T09:17:20.308Z,65.61
2023-03-02T09:20:22.164Z,65.64
2023-03-02T09:23:25.769Z,65.63
2023-03-02T09:26:29.777Z,65.15
2023-03-02T09:29:31.695Z,63.43
2023-03-02T09:32:33.939Z,62.78
2023-03-02T09:35:38.741Z,61.26
2023-03-02T09:38:40.737Z,60.73
2023-03-02T09:42:06.394Z,59.23
2023-03-02T09:45:36.218Z,58.87
2023-03-02T09:49:02.050Z,57.32
2023-03-02T09:52:20.193Z,57.18
2023-03-02T09:55:29.817Z,57.34
2023-03-02T09:58:37.824Z,56.88
2023-03-02T10:01:47.255Z,55.98
2023-03-02T10:04:53.452Z,57.06
2023-03-02T10:07:57.841Z,56.43
2023-03-02T10:11:22.508Z,55.21
2023-03-02T10:14:42.090Z,54.85
2023-03-02T10:18:22.609Z,55.61
2023-03-02T10:21:30.102Z,56.70
2023-03-02T10:24:41.574Z,56.45
2023-03-02T10:27:50.295Z,56.96
2023-03-02T10:31:08.429Z,56.39
2023-03-02T10:34:13.402Z,57.11
2023-03-02T10:37:19.540Z,56.74
2023-03-02T10:40:46.614Z,55.93
2023-03-02T10:43:58.639Z,57.26
2023-03-02T10:47:00.602Z,57.01
2023-03-02T10:50:02.656Z,56.98
2023-03-02T10:53:08.783Z,56.73
2023-03-02T10:56:20.873Z,57.06
2023-03-02T10:59:26.213Z,56.93
2023-03-02T11:02:37.727Z,56.44
2023-03-02T11:05:41.517Z,57.40
2023-03-02T11:08:43.453Z,57.33
2023-03-02T11:11:57.105Z,57.17
2023-03-02T11:15:12.316Z,57.33
2023-03-02T11:18:34.778Z,56.27
2023-03-02T11:22:20.640Z,57.92
2023-03-02T11:25:31.885Z,57.91
2023-03-02T11:28:44.781Z,58.01
2023-03-02T11:31:47.060Z,58.73
2023-03-02T11:34:55.924Z,59.23
2023-03-02T11:38:09.288Z,58.92
2023-03-02T11:41:30.272Z,59.71
2023-03-02T11:44:32.184Z,59.97
2023-03-02T11:47:36.100Z,60.63
2023-03-02T11:51:08.892Z,60.52
2023-03-02T11:54:34.733Z,61.25
2023-03-02T11:57:49.688Z,61.36
2023-03-02T12:00:52.597Z,62.00
2023-03-02T12:07:25.171Z,61.38
2023-03-02T12:10:58.966Z,61.78
2023-03-02T12:14:04.157Z,61.41
2023-03-02T12:17:19.321Z,61.25
2023-03-02T12:20:21.215Z,61.72
2023-03-02T12:23:25.222Z,61.73
2023-03-02T12:26:35.582Z,62.01
2023-03-02T12:29:49.722Z,61.78
2023-03-02T12:33:03.126Z,61.98
2023-03-02T12:36:13.709Z,61.55
2023-03-02T12:39:45.100Z,61.95
2023-03-02T12:43:16.225Z,61.84
2023-03-02T12:46:27.945Z,61.23
2023-03-02T12:49:51.381Z,61.04
2023-03-02T12:52:57.933Z,61.29
2023-03-02T12:55:59.901Z,61.00
2023-03-02T12:59:01.805Z,61.25
2023-03-02T13:02:24.264Z,61.95
2023-03-02T13:05:30.512Z,62.23
2023-03-02T13:08:33.020Z,62.55
2023-03-02T13:11:37.099Z,62.59
2023-03-02T13:14:41.607Z,62.59
2023-03-02T13:17:44.755Z,62.68
2023-03-02T13:20:47.056Z,62.67
2023-03-02T13:23:50.663Z,62.83
2023-03-02T13:27:04.816Z,63.21
2023-03-02T13:30:27.274Z,63.28
2023-03-02T13:33:31.421Z,63.45
2023-03-02T13:36:38.695Z,63.84
2023-03-02T13:39:40.576Z,64.20
2023-03-02T13:42:42.896Z,64.41
2023-03-02T13:46:01.498Z,64.81
2023-03-02T13:49:11.064Z,64.70
2023-03-02T13:52:30.305Z,65.38
2023-03-02T13:55:32.737Z,65.08
2023-03-02T13:58:39.683Z,65.70
2023-03-02T14:01:41.844Z,65.75
2023-03-02T14:04:43.776Z,65.57
2023-03-02T14:07:46.550Z,65.71
2023-03-02T14:10:51.741Z,65.59
2023-03-02T14:13:55.022Z,66.03
2023-03-02T14:16:57.061Z,66.07
2023-03-02T14:19:59.154Z,66.41
2023-03-02T14:23:03.573Z,66.61
2023-03-02T14:26:18.256Z,67.33
2023-03-02T14:29:26.748Z,67.47
2023-03-02T14:32:29.423Z,68.08
2023-03-02T14:35:31.325Z,68.87
2023-03-02T14:38:33.239Z,69.24
2023-03-02T14:41:52.598Z,69.35
2023-03-02T14:44:55.420Z,70.31
2023-03-02T14:47:57.347Z,70.19
2023-03-02T14:51:02.721Z,70.48
2023-03-02T14:54:07.792Z,70.73
2023-03-02T14:57:22.508Z,71.63
2023-03-02T15:00:25.334Z,71.49
2023-03-02T15:03:27.841Z,72.27
2023-03-02T15:06:33.301Z,71.97
2023-03-02T15:09:35.381Z,72.74
2023-03-02T15:12:37.553Z,72.62
2023-03-02T15:15:40.893Z,72.47
2023-03-02T15:18:42.936Z,72.93
2023-03-02T15:21:46.530Z,72.90
2023-03-02T15:24:48.429Z,73.00
2023-03-02T15:27:50.711Z,73.14
2023-03-02T15:30:52.682Z,73.89
2023-03-02T15:33:55.887Z,73.48
2023-03-02T15:36:57.773Z,73.78
2023-03-02T15:40:00.948Z,73.58
2023-03-02T15:43:03.101Z,73.92
2023-03-02T15:46:09.503Z,73.79
2023-03-02T15:49:14.148Z,74.05
2023-03-02T15:52:16.327Z,74.31
2023-03-02T15:55:18.464Z,74.51
2023-03-02T15:58:21.966Z,74.77
2023-03-02T16:01:23.958Z,74.79
2023-03-02T16:04:26.953Z,75.10
2023-03-02T16:07:30.066Z,76.00
2023-03-02T16:10:32.157Z,74.77
2023-03-02T16:13:34.803Z,75.16
2023-03-02T16:16:36.775Z,75.09
2023-03-02T16:19:38.703Z,75.51
2023-03-02T16:22:40.630Z,75.39
2023-03-02T16:25:43.870Z,75.59
2023-03-02T16:28:46.212Z,75.85
2023-03-02T16:31:48.943Z,75.82
2023-03-02T16:34:56.631Z,75.93
2023-03-02T16:37:58.703Z,75.94
2023-03-02T16:41:01.382Z,75.86
2023-03-02T16:44:04.269Z,76.47
2023-03-02T16:47:06.217Z,76.77
2023-03-02T16:50:08.752Z,76.70
2023-03-02T16:53:13.490Z,76.73
2023-03-02T16:56:21.074Z,76.84
2023-03-02T16:59:22.985Z,76.67
2023-03-02T17:02:24.882Z,76.59
2023-03-02T17:05:26.714Z,77.02
2023-03-02T17:08:29.075Z,76.92
2023-03-02T17:11:31.970Z,78.39
2023-03-02T17:14:35.733Z,77.44
2023-03-02T17:17:38.865Z,77.76
2023-03-02T17:20:43.236Z,77.78
2023-03-02T17:23:48.152Z,77.59
2023-03-02T17:26:50.125Z,77.51
2023-03-02T17:29:52.257Z,77.76
2023-03-02T17:32:54.202Z,77.77
2023-03-02T17:35:56.208Z,78.13
2023-03-02T17:38:58.124Z,78.22
2023-03-02T17:42:00.059Z,78.03
2023-03-02T17:45:01.993Z,78.36
2023-03-02T17:48:04.334Z,78.15
2023-03-02T17:51:06.437Z,78.34
2023-03-02T17:54:08.361Z,78.47
2023-03-02T17:57:11.309Z,78.31
2023-03-02T18:00:17.778Z,78.56
2023-03-02T18:03:19.917Z,78.58
2023-03-02T18:06:24.201Z,79.09
2023-03-02T18:09:26.166Z,79.16
2023-03-02T18:12:30.064Z,79.52
2023-03-02T18:15:32.035Z,79.35
2023-03-02T18:18:34.695Z,79.33
2023-03-02T18:21:36.739Z,79.53
2023-03-02T18:24:38.751Z,79.89
2023-03-02T18:27:40.647Z,80.36
2023-03-02T18:30:42.926Z,80.79
2023-03-02T18:33:48.764Z,80.39
2023-03-02T18:36:50.906Z,80.18
2023-03-02T18:39:52.832Z,80.42
2023-03-02T18:42:54.775Z,80.29
2023-03-02T18:45:57.836Z,80.50
2023-03-02T18:49:01.023Z,81.98
2023-03-02T18:52:06.924Z,81.30
2023-03-02T18:55:09.289Z,80.91
2023-03-02T18:58:18.753Z,80.67
2023-03-02T19:01:27.517Z,81.18
2023-03-02T19:04:30.877Z,81.32
2023-03-02T19:07:35.085Z,81.29
2023-03-02T19:10:39.659Z,81.30
2023-03-02T19:13:41.606Z,81.41
2023-03-02T19:16:43.565Z,81.54
2023-03-02T19:19:45.536Z,81.49
2023-03-02T19:22:50.101Z,81.32
2023-03-02T19:25:52.617Z,81.91
2023-03-02T19:28:55.552Z,82.08
2023-03-02T19:31:59.636Z,82.25
2023-03-02T19:35:02.579Z,81.98
2023-03-02T19:38:05.833Z,81.78
2023-03-02T19:41:09.387Z,82.18
2023-03-02T19:44:12.646Z,81.94
2023-03-02T19:47:14.846Z,81.83
2023-03-02T19:50:17.898Z,81.99
2023-03-02T19:53:19.724Z,82.11
2023-03-02T19:56:22.047Z,81.96
2023-03-02T19:59:32.568Z,81.91
2023-03-02T20:02:40.168Z,81.72
2023-03-02T20:05:42.269Z,81.60
2023-03-02T20:08:44.211Z,82.02
2023-03-02T20:11:48.741Z,81.62
2023-03-02T20:14:52.904Z,81.71
2023-03-02T20:17:56.262Z,81.95
2023-03-02T20:20:58.263Z,81.68
2023-03-02T20:24:02.301Z,81.77
2023-03-02T20:27:06.972Z,81.94
2023-03-02T20:30:15.012Z,81.82
2023-03-02T20:33:19.227Z,82.25
2023-03-02T20:36:30.966Z,82.02
2023-03-02T20:39:36.335Z,82.20
2023-03-02T20:42:40.050Z,82.39
2023-03-02T20:45:42.152Z,82.14
2023-03-02T20:48:44.131Z,82.57
2023-03-02T20:51:56.317Z,82.75
2023-03-02T20:54:58.320Z,82.74
2023-03-02T20:58:01.243Z,82.97
2023-03-02T21:01:03.317Z,82.92
2023-03-02T21:04:06.834Z,83.11
2023-03-02T21:07:11.489Z,83.19
2023-03-02T21:10:21.540Z,83.31
2023-03-02T21:13:23.619Z,83.39
2023-03-02T21:16:28.476Z,84.13
2023-03-02T21:19:31.035Z,83.51
2023-03-02T21:22:32.891Z,83.55
2023-03-02T21:25:34.806Z,83.28
2023-03-02T21:28:36.965Z,83.13
2023-03-02T21:31:44.076Z,83.50
2023-03-02T21:34:46.049Z,83.33
2023-03-02T21:37:52.886Z,82.86
2023-03-02T21:40:55.155Z,83.32
2023-03-02T21:43:57.882Z,83.34
2023-03-02T21:46:59.834Z,83.38
2023-03-02T21:50:05.554Z,83.22
2023-03-02T21:53:07.733Z,83.24
2023-03-02T21:56:20.569Z,83.31
2023-03-02T21:59:22.536Z,83.13
2023-03-02T22:02:24.372Z,83.14
2023-03-02T22:05:27.002Z,83.43
2023-03-02T22:08:28.915Z,83.01
2023-03-02T22:11:34.426Z,83.05
2023-03-02T22:14:37.078Z,83.17
2023-03-02T22:17:39.379Z,83.17
2023-03-02T22:20:46.773Z,83.74
2023-03-02T22:23:48.996Z,83.45
2023-03-02T22:26:59.565Z,83.98
2023-03-02T22:30:08.120Z,83.71
2023-03-02T22:33:31.773Z,83.75
2023-03-02T22:36:33.651Z,83.78
2023-03-02T22:39:35.531Z,83.74
2023-03-02T22:42:37.384Z,83.93
2023-03-02T22:45:41.302Z,83.93
2023-03-02T22:48:51.794Z,84.16
2023-03-02T22:51:56.043Z,83.97
2023-03-02T22:54:57.947Z,83.94
2023-03-02T22:58:20.048Z,84.39
2023-03-02T23:01:30.452Z,84.40
2023-03-02T23:04:36.587Z,84.13
2023-03-02T23:07:38.488Z,83.91
2023-03-02T23:10:41.931Z,83.76
2023-03-02T23:13:44.750Z,84.09
2023-03-02T23:16:51.452Z,83.95
2023-03-02T23:19:56.142Z,84.33
2023-03-02T23:22:58.123Z,84.29
2023-03-02T23:26:00.020Z,84.06
2023-03-02T23:29:02.038Z,84.24
2023-03-02T23:32:04.386Z,84.01
2023-03-02T23:35:08.880Z,84.25
2023-03-02T23:38:12.142Z,84.32
2023-03-02T23:41:14.680Z,83.96
2023-03-02T23:44:18.339Z,84.50
2023-03-02T23:47:20.251Z,84.23
2023-03-02T23:50:26.261Z,84.19
2023-03-02T23:53:28.251Z,84.01
2023-03-02T23:56:30.135Z,83.73
2023-03-02T23:59:32.058Z,83.78
